sensor_id;sensor_type;location;lat;lon;timestamp;pressure;altitude;pressure_sealevel;temperature;humidity
36598;BME280;22607;49.550;11.940;2023-03-04T00:02:24;97219.50;;;-0.57;97.67
36598;BME280;22607;49.550;11.940;2023-03-04T00:04:50;97226.50;;;-0.44;94.48
36598;BME280;22607;49.550;11.940;2023-03-04T00:07:17;97221.97;;;-0.55;95.84
36598;BME280;22607;49.550;11.940;2023-03-04T00:09:44;97220.78;;;-0.78;99.18
36598;BME280;22607;49.550;11.940;2023-03-04T00:12:12;97222.06;;;-0.71;97.96
36598;BME280;22607;49.550;11.940;2023-03-04T00:14:38;97220.78;;;-0.78;98.09
36598;BME280;22607;49.550;11.940;2023-03-04T00:17:05;97213.66;;;-0.75;98.54
36598;BME280;22607;49.550;11.940;2023-03-04T00:19:32;97227.66;;;-0.94;100.00
36598;BME280;22607;49.550;11.940;2023-03-04T00:22:03;97224.91;;;-0.90;100.00
36598;BME280;22607;49.550;11.940;2023-03-04T00:24:30;97230.88;;;-1.04;100.00
36598;BME280;22607;49.550;11.940;2023-03-04T00:26:57;97231.63;;;-0.88;99.93
36598;BME280;22607;49.550;11.940;2023-03-04T00:29:23;97226.31;;;-0.85;99.66
36598;BME280;22607;49.550;11.940;2023-03-04T00:31:50;97228.31;;;-0.90;98.80
36598;BME280;22607;49.550;11.940;2023-03-04T00:34:16;97222.41;;;-0.77;98.46
36598;BME280;22607;49.550;11.940;2023-03-04T00:36:43;97223.56;;;-0.82;99.13
36598;BME280;22607;49.550;11.940;2023-03-04T00:39:12;97217.25;;;-0.92;100.00
36598;BME280;22607;49.550;11.940;2023-03-04T00:41:38;97212.81;;;-1.19;100.00
36598;BME280;22607;49.550;11.940;2023-03-04T00:44:05;97210.88;;;-1.15;100.00
36598;BME280;22607;49.550;11.940;2023-03-04T00:46:32;97209.66;;;-1.24;100.00
36598;BME280;22607;49.550;11.940;2023-03-04T00:48:58;97214.94;;;-1.11;100.00
36598;BME280;22607;49.550;11.940;2023-03-04T00:51:25;97208.63;;;-1.36;100.00
36598;BME280;22607;49.550;11.940;2023-03-04T00:53:52;97207.25;;;-1.42;100.00
36598;BME280;22607;49.550;11.940;2023-03-04T00:56:19;97210.53;;;-1.40;100.00
36598;BME280;22607;49.550;11.940;2023-03-04T00:58:46;97205.66;;;-1.14;100.00
36598;BME280;22607;49.550;11.940;2023-03-04T01:01:12;97204.31;;;-1.21;100.00
36598;BME280;22607;49.550;11.940;2023-03-04T01:03:40;97198.28;;;-1.06;100.00
36598;BME280;22607;49.550;11.940;2023-03-04T01:06:07;97196.22;;;-1.15;100.00
36598;BME280;22607;49.550;11.940;2023-03-04T01:08:34;97199.53;;;-1.27;100.00
36598;BME280;22607;49.550;11.940;2023-03-04T01:11:01;97204.88;;;-1.16;100.00
36598;BME280;22607;49.550;11.940;2023-03-04T01:13:28;97196.88;;;-1.26;100.00
36598;BME280;22607;49.550;11.940;2023-03-04T01:15:55;97204.56;;;-1.40;100.00
36598;BME280;22607;49.550;11.940;2023-03-04T01:18:23;97201.72;;;-1.36;100.00
36598;BME280;22607;49.550;11.940;2023-03-04T01:20:49;97193.44;;;-1.41;100.00
36598;BME280;22607;49.550;11.940;2023-03-04T01:23:16;97188.38;;;-1.28;100.00
36598;BME280;22607;49.550;11.940;2023-03-04T01:25:42;97194.56;;;-1.30;100.00
36598;BME280;22607;49.550;11.940;2023-03-04T01:28:09;97188.38;;;-1.73;100.00
36598;BME280;22607;49.550;11.940;2023-03-04T01:30:36;97195.63;;;-1.49;100.00
36598;BME280;22607;49.550;11.940;2023-03-04T01:33:03;97184.78;;;-1.40;100.00
36598;BME280;22607;49.550;11.940;2023-03-04T01:35:29;97194.91;;;-1.37;100.00
36598;BME280;22607;49.550;11.940;2023-03-04T01:37:56;97185.50;;;-1.68;100.00
36598;BME280;22607;49.550;11.940;2023-03-04T01:40:25;97183.84;;;-1.69;100.00
36598;BME280;22607;49.550;11.940;2023-03-04T01:42:52;97177.63;;;-1.65;100.00
36598;BME280;22607;49.550;11.940;2023-03-04T01:45:19;97180.31;;;-1.52;100.00
36598;BME280;22607;49.550;11.940;2023-03-04T01:47:47;97175.66;;;-1.46;100.00
36598;BME280;22607;49.550;11.940;2023-03-04T01:50:32;97176.22;;;-1.71;100.00
36598;BME280;22607;49.550;11.940;2023-03-04T01:52:59;97173.44;;;-1.82;100.00
36598;BME280;22607;49.550;11.940;2023-03-04T01:55:27;97175.91;;;-1.81;100.00
36598;BME280;22607;49.550;11.940;2023-03-04T01:57:54;97175.75;;;-1.94;100.00
36598;BME280;22607;49.550;11.940;2023-03-04T02:00:25;97171.78;;;-1.83;100.00
36598;BME280;22607;49.550;11.940;2023-03-04T02:02:54;97165.13;;;-1.88;100.00
36598;BME280;22607;49.550;11.940;2023-03-04T02:05:23;97160.66;;;-2.00;100.00
36598;BME280;22607;49.550;11.940;2023-03-04T02:07:50;97159.47;;;-1.78;100.00
36598;BME280;22607;49.550;11.940;2023-03-04T02:10:17;97167.94;;;-1.92;100.00
36598;BME280;22607;49.550;11.940;2023-03-04T02:12:44;97165.13;;;-1.88;100.00
36598;BME280;22607;49.550;11.940;2023-03-04T02:15:11;97158.13;;;-1.86;100.00
36598;BME280;22607;49.550;11.940;2023-03-04T02:17:38;97161.69;;;-1.72;100.00
36598;BME280;22607;49.550;11.940;2023-03-04T02:20:14;97161.75;;;-1.74;100.00
36598;BME280;22607;49.550;11.940;2023-03-04T02:22:52;97152.56;;;-1.78;100.00
36598;BME280;22607;49.550;11.940;2023-03-04T02:25:28;97151.50;;;-1.90;100.00
36598;BME280;22607;49.550;11.940;2023-03-04T02:27:57;97147.69;;;-1.82;100.00
36598;BME280;22607;49.550;11.940;2023-03-04T02:30:23;97145.66;;;-1.77;100.00
36598;BME280;22607;49.550;11.940;2023-03-04T02:32:53;97139.44;;;-1.73;100.00
36598;BME280;22607;49.550;11.940;2023-03-04T02:35:20;97138.09;;;-1.80;100.00
36598;BME280;22607;49.550;11.940;2023-03-04T02:37:47;97137.38;;;-1.82;100.00
36598;BME280;22607;49.550;11.940;2023-03-04T02:40:17;97139.69;;;-1.78;100.00
36598;BME280;22607;49.550;11.940;2023-03-04T02:42:46;97128.75;;;-1.98;100.00
36598;BME280;22607;49.550;11.940;2023-03-04T02:45:48;97120.56;;;-2.04;100.00
36598;BME280;22607;49.550;11.940;2023-03-04T02:48:18;97124.63;;;-2.00;100.00
36598;BME280;22607;49.550;11.940;2023-03-04T02:50:50;97125.47;;;-2.00;100.00
36598;BME280;22607;49.550;11.940;2023-03-04T02:53:18;97124.25;;;-1.94;100.00
36598;BME280;22607;49.550;11.940;2023-03-04T02:55:46;97118.06;;;-2.06;100.00
36598;BME280;22607;49.550;11.940;2023-03-04T02:58:17;97126.78;;;-2.08;100.00
36598;BME280;22607;49.550;11.940;2023-03-04T03:00:43;97117.75;;;-2.16;100.00
36598;BME280;22607;49.550;11.940;2023-03-04T03:03:10;97122.16;;;-2.34;100.00
36598;BME280;22607;49.550;11.940;2023-03-04T03:05:39;97119.69;;;-2.19;100.00
36598;BME280;22607;49.550;11.940;2023-03-04T03:08:06;97120.03;;;-2.42;100.00
36598;BME280;22607;49.550;11.940;2023-03-04T03:10:35;97119.56;;;-2.18;100.00
36598;BME280;22607;49.550;11.940;2023-03-04T03:13:01;97115.63;;;-2.23;100.00
36598;BME280;22607;49.550;11.940;2023-03-04T03:15:28;97116.53;;;-2.41;100.00
36598;BME280;22607;49.550;11.940;2023-03-04T03:17:55;97118.28;;;-2.25;100.00
36598;BME280;22607;49.550;11.940;2023-03-04T03:20:22;97110.00;;;-2.30;100.00
36598;BME280;22607;49.550;11.940;2023-03-04T03:22:49;97119.69;;;-2.35;100.00
36598;BME280;22607;49.550;11.940;2023-03-04T03:25:16;97120.72;;;-2.54;100.00
36598;BME280;22607;49.550;11.940;2023-03-04T03:27:42;97117.94;;;-2.67;100.00
36598;BME280;22607;49.550;11.940;2023-03-04T03:30:11;97114.72;;;-2.55;100.00
36598;BME280;22607;49.550;11.940;2023-03-04T03:32:38;97118.88;;;-2.68;100.00
36598;BME280;22607;49.550;11.940;2023-03-04T03:35:04;97114.72;;;-2.39;100.00
36598;BME280;22607;49.550;11.940;2023-03-04T03:37:31;97120.88;;;-2.57;100.00
36598;BME280;22607;49.550;11.940;2023-03-04T03:39:58;97115.44;;;-2.53;100.00
36598;BME280;22607;49.550;11.940;2023-03-04T03:42:24;97123.16;;;-2.53;100.00
36598;BME280;22607;49.550;11.940;2023-03-04T03:44:51;97113.56;;;-2.65;100.00
36598;BME280;22607;49.550;11.940;2023-03-04T03:47:17;97119.34;;;-2.78;100.00
36598;BME280;22607;49.550;11.940;2023-03-04T03:49:44;97114.50;;;-2.66;100.00
36598;BME280;22607;49.550;11.940;2023-03-04T03:52:12;97113.00;;;-2.70;100.00
36598;BME280;22607;49.550;11.940;2023-03-04T03:54:39;97116.78;;;-2.61;100.00
36598;BME280;22607;49.550;11.940;2023-03-04T03:57:05;97114.56;;;-2.68;100.00
36598;BME280;22607;49.550;11.940;2023-03-04T03:59:32;97111.06;;;-2.83;100.00
36598;BME280;22607;49.550;11.940;2023-03-04T04:01:58;97112.47;;;-2.93;100.00
36598;BME280;22607;49.550;11.940;2023-03-04T04:04:25;97122.66;;;-2.75;100.00
36598;BME280;22607;49.550;11.940;2023-03-04T04:06:52;97122.25;;;-2.84;100.00
36598;BME280;22607;49.550;11.940;2023-03-04T04:09:19;97127.97;;;-2.95;100.00
36598;BME280;22607;49.550;11.940;2023-03-04T04:11:45;97127.66;;;-2.72;100.00
36598;BME280;22607;49.550;11.940;2023-03-04T04:14:13;97127.31;;;-2.82;100.00
36598;BME280;22607;49.550;11.940;2023-03-04T04:16:39;97126.34;;;-2.80;100.00
36598;BME280;22607;49.550;11.940;2023-03-04T04:19:06;97135.13;;;-2.84;100.00
36598;BME280;22607;49.550;11.940;2023-03-04T04:21:32;97131.56;;;-2.81;100.00
36598;BME280;22607;49.550;11.940;2023-03-04T04:23:59;97139.91;;;-2.94;100.00
36598;BME280;22607;49.550;11.940;2023-03-04T04:26:25;97143.50;;;-3.14;100.00
36598;BME280;22607;49.550;11.940;2023-03-04T04:28:52;97133.44;;;-3.01;100.00
36598;BME280;22607;49.550;11.940;2023-03-04T04:31:18;97140.56;;;-2.90;100.00
36598;BME280;22607;49.550;11.940;2023-03-04T04:33:45;97137.72;;;-3.01;100.00
36598;BME280;22607;49.550;11.940;2023-03-04T04:36:13;97148.41;;;-3.09;100.00
36598;BME280;22607;49.550;11.940;2023-03-04T04:38:40;97148.97;;;-2.86;100.00
36598;BME280;22607;49.550;11.940;2023-03-04T04:41:23;97156.09;;;-2.92;100.00
36598;BME280;22607;49.550;11.940;2023-03-04T04:43:52;97158.41;;;-2.87;100.00
36598;BME280;22607;49.550;11.940;2023-03-04T04:46:20;97141.50;;;-2.75;100.00
36598;BME280;22607;49.550;11.940;2023-03-04T04:48:48;97146.75;;;-2.60;100.00
36598;BME280;22607;49.550;11.940;2023-03-04T04:51:14;97140.28;;;-2.68;100.00
36598;BME280;22607;49.550;11.940;2023-03-04T04:53:41;97142.34;;;-2.74;100.00
36598;BME280;22607;49.550;11.940;2023-03-04T04:56:11;97160.47;;;-2.94;100.00
36598;BME280;22607;49.550;11.940;2023-03-04T04:58:39;97163.81;;;-2.92;100.00
36598;BME280;22607;49.550;11.940;2023-03-04T05:01:05;97167.31;;;-2.60;100.00
36598;BME280;22607;49.550;11.940;2023-03-04T05:03:33;97172.53;;;-2.46;100.00
36598;BME280;22607;49.550;11.940;2023-03-04T05:06:00;97181.75;;;-2.42;100.00
36598;BME280;22607;49.550;11.940;2023-03-04T05:08:27;97181.25;;;-2.48;100.00
36598;BME280;22607;49.550;11.940;2023-03-04T05:10:53;97182.25;;;-2.51;100.00
36598;BME280;22607;49.550;11.940;2023-03-04T05:13:20;97186.31;;;-2.63;100.00
36598;BME280;22607;49.550;11.940;2023-03-04T05:15:47;97189.72;;;-2.62;100.00
36598;BME280;22607;49.550;11.940;2023-03-04T05:18:16;97184.47;;;-2.77;100.00
36598;BME280;22607;49.550;11.940;2023-03-04T05:20:43;97184.72;;;-2.66;100.00
36598;BME280;22607;49.550;11.940;2023-03-04T05:23:10;97188.88;;;-2.63;100.00
36598;BME280;22607;49.550;11.940;2023-03-04T05:25:36;97191.38;;;-2.61;100.00
36598;BME280;22607;49.550;11.940;2023-03-04T05:28:03;97184.50;;;-2.61;100.00
36598;BME280;22607;49.550;11.940;2023-03-04T05:30:30;97181.53;;;-2.53;100.00
36598;BME280;22607;49.550;11.940;2023-03-04T05:32:56;97183.59;;;-2.44;100.00
36598;BME280;22607;49.550;11.940;2023-03-04T05:35:23;97180.03;;;-2.41;100.00
36598;BME280;22607;49.550;11.940;2023-03-04T05:37:49;97182.84;;;-2.30;100.00
36598;BME280;22607;49.550;11.940;2023-03-04T05:40:16;97185.25;;;-2.43;100.00
36598;BME280;22607;49.550;11.940;2023-03-04T05:42:43;97181.25;;;-2.65;100.00
36598;BME280;22607;49.550;11.940;2023-03-04T05:45:10;97182.59;;;-2.57;100.00
36598;BME280;22607;49.550;11.940;2023-03-04T05:47:37;97180.59;;;-2.52;100.00
36598;BME280;22607;49.550;11.940;2023-03-04T05:50:03;97180.38;;;-2.47;100.00
36598;BME280;22607;49.550;11.940;2023-03-04T05:52:30;97178.38;;;-2.42;100.00
36598;BME280;22607;49.550;11.940;2023-03-04T05:54:56;97176.63;;;-2.42;100.00
36598;BME280;22607;49.550;11.940;2023-03-04T05:57:23;97173.63;;;-2.34;100.00
36598;BME280;22607;49.550;11.940;2023-03-04T05:59:49;97175.97;;;-2.29;100.00
36598;BME280;22607;49.550;11.940;2023-03-04T06:02:16;97169.16;;;-2.30;100.00
36598;BME280;22607;49.550;11.940;2023-03-04T06:04:42;97172.47;;;-2.28;100.00
36598;BME280;22607;49.550;11.940;2023-03-04T06:07:09;97181.69;;;-2.40;100.00
36598;BME280;22607;49.550;11.940;2023-03-04T06:09:36;97181.09;;;-2.45;100.00
36598;BME280;22607;49.550;11.940;2023-03-04T06:12:02;97177.97;;;-2.18;100.00
36598;BME280;22607;49.550;11.940;2023-03-04T06:14:29;97184.75;;;-2.17;100.00
36598;BME280;22607;49.550;11.940;2023-03-04T06:16:55;97187.47;;;-2.04;100.00
36598;BME280;22607;49.550;11.940;2023-03-04T06:19:22;97178.69;;;-2.16;100.00
36598;BME280;22607;49.550;11.940;2023-03-04T06:21:49;97183.91;;;-2.18;100.00
36598;BME280;22607;49.550;11.940;2023-03-04T06:24:15;97187.56;;;-2.22;100.00
36598;BME280;22607;49.550;11.940;2023-03-04T06:26:42;97191.81;;;-2.05;100.00
36598;BME280;22607;49.550;11.940;2023-03-04T06:29:09;97194.13;;;-2.00;100.00
36598;BME280;22607;49.550;11.940;2023-03-04T06:31:35;97200.13;;;-2.00;100.00
36598;BME280;22607;49.550;11.940;2023-03-04T06:34:02;97204.50;;;-1.86;100.00
36598;BME280;22607;49.550;11.940;2023-03-04T06:36:33;97202.00;;;-1.87;100.00
36598;BME280;22607;49.550;11.940;2023-03-04T06:39:04;97209.13;;;-1.76;100.00
36598;BME280;22607;49.550;11.940;2023-03-04T06:41:30;97210.47;;;-1.69;100.00
36598;BME280;22607;49.550;11.940;2023-03-04T06:44:00;97212.50;;;-1.60;100.00
36598;BME280;22607;49.550;11.940;2023-03-04T06:46:27;97213.44;;;-1.61;100.00
36598;BME280;22607;49.550;11.940;2023-03-04T06:48:55;97207.75;;;-1.51;100.00
36598;BME280;22607;49.550;11.940;2023-03-04T06:51:22;97207.47;;;-1.77;100.00
36598;BME280;22607;49.550;11.940;2023-03-04T06:53:48;97212.38;;;-1.73;100.00
36598;BME280;22607;49.550;11.940;2023-03-04T06:56:16;97211.88;;;-1.63;100.00
36598;BME280;22607;49.550;11.940;2023-03-04T06:58:43;97215.13;;;-1.45;100.00
36598;BME280;22607;49.550;11.940;2023-03-04T07:03:37;97224.84;;;-1.34;100.00
36598;BME280;22607;49.550;11.940;2023-03-04T07:06:04;97223.81;;;-1.32;100.00
36598;BME280;22607;49.550;11.940;2023-03-04T07:08:31;97228.75;;;-1.43;100.00
36598;BME280;22607;49.550;11.940;2023-03-04T07:10:57;97222.19;;;-1.33;100.00
36598;BME280;22607;49.550;11.940;2023-03-04T07:13:25;97230.00;;;-1.34;100.00
36598;BME280;22607;49.550;11.940;2023-03-04T07:15:52;97232.53;;;-1.18;100.00
36598;BME280;22607;49.550;11.940;2023-03-04T07:18:18;97239.16;;;-1.14;100.00
36598;BME280;22607;49.550;11.940;2023-03-04T07:20:45;97236.94;;;-1.06;100.00
36598;BME280;22607;49.550;11.940;2023-03-04T07:23:11;97232.28;;;-1.29;100.00
36598;BME280;22607;49.550;11.940;2023-03-04T07:25:43;97242.38;;;-1.10;100.00
36598;BME280;22607;49.550;11.940;2023-03-04T07:28:10;97240.38;;;-1.05;100.00
36598;BME280;22607;49.550;11.940;2023-03-04T07:30:36;97235.69;;;-0.98;100.00
36598;BME280;22607;49.550;11.940;2023-03-04T07:33:03;97238.63;;;-1.04;100.00
36598;BME280;22607;49.550;11.940;2023-03-04T07:35:29;97244.34;;;-0.99;100.00
36598;BME280;22607;49.550;11.940;2023-03-04T07:37:56;97230.69;;;-1.01;100.00
36598;BME280;22607;49.550;11.940;2023-03-04T07:40:22;97243.41;;;-0.98;100.00
36598;BME280;22607;49.550;11.940;2023-03-04T07:42:50;97242.88;;;-0.89;100.00
36598;BME280;22607;49.550;11.940;2023-03-04T07:45:17;97247.13;;;-0.73;100.00
36598;BME280;22607;49.550;11.940;2023-03-04T07:47:44;97249.59;;;-0.86;100.00
36598;BME280;22607;49.550;11.940;2023-03-04T07:50:12;97254.44;;;-1.11;100.00
36598;BME280;22607;49.550;11.940;2023-03-04T07:52:46;97250.44;;;-0.86;100.00
36598;BME280;22607;49.550;11.940;2023-03-04T07:55:14;97250.72;;;-0.76;100.00
36598;BME280;22607;49.550;11.940;2023-03-04T07:57:42;97251.38;;;-0.72;100.00
36598;BME280;22607;49.550;11.940;2023-03-04T08:00:11;97248.50;;;-0.68;100.00
36598;BME280;22607;49.550;11.940;2023-03-04T08:02:39;97247.13;;;-0.59;100.00
36598;BME280;22607;49.550;11.940;2023-03-04T08:05:08;97242.72;;;-0.57;100.00
36598;BME280;22607;49.550;11.940;2023-03-04T08:07:34;97240.50;;;-0.48;100.00
36598;BME280;22607;49.550;11.940;2023-03-04T08:10:02;97232.38;;;-0.42;100.00
36598;BME280;22607;49.550;11.940;2023-03-04T08:12:29;97235.13;;;-0.45;100.00
36598;BME280;22607;49.550;11.940;2023-03-04T08:14:56;97242.53;;;-0.39;100.00
36598;BME280;22607;49.550;11.940;2023-03-04T08:17:26;97233.13;;;-0.25;100.00
36598;BME280;22607;49.550;11.940;2023-03-04T08:19:55;97236.25;;;-0.35;100.00
36598;BME280;22607;49.550;11.940;2023-03-04T08:22:26;97237.38;;;-0.39;100.00
36598;BME280;22607;49.550;11.940;2023-03-04T08:24:53;97238.09;;;-0.37;100.00
36598;BME280;22607;49.550;11.940;2023-03-04T08:27:19;97240.09;;;-0.28;100.00
36598;BME280;22607;49.550;11.940;2023-03-04T08:29:46;97242.13;;;-0.18;100.00
36598;BME280;22607;49.550;11.940;2023-03-04T08:32:12;97239.28;;;-0.14;100.00
36598;BME280;22607;49.550;11.940;2023-03-04T08:34:44;97231.22;;;-0.09;100.00
36598;BME280;22607;49.550;11.940;2023-03-04T08:37:11;97240.84;;;-0.11;100.00
36598;BME280;22607;49.550;11.940;2023-03-04T08:39:37;97238.97;;;-0.09;100.00
36598;BME280;22607;49.550;11.940;2023-03-04T08:42:05;97239.44;;;-0.02;100.00
36598;BME280;22607;49.550;11.940;2023-03-04T08:44:32;97235.09;;;-0.02;100.00
36598;BME280;22607;49.550;11.940;2023-03-04T08:46:58;97233.09;;;-0.11;100.00
36598;BME280;22607;49.550;11.940;2023-03-04T08:49:26;97238.75;;;0.09;100.00
36598;BME280;22607;49.550;11.940;2023-03-04T08:51:54;97232.47;;;0.13;100.00
36598;BME280;22607;49.550;11.940;2023-03-04T08:54:22;97243.34;;;0.18;100.00
36598;BME280;22607;49.550;11.940;2023-03-04T08:56:48;97242.06;;;0.11;100.00
36598;BME280;22607;49.550;11.940;2023-03-04T08:59:15;97246.31;;;0.12;100.00
36598;BME280;22607;49.550;11.940;2023-03-04T09:01:41;97234.53;;;0.08;100.00
36598;BME280;22607;49.550;11.940;2023-03-04T09:04:08;97243.75;;;0.12;100.00
36598;BME280;22607;49.550;11.940;2023-03-04T09:06:34;97242.41;;;0.19;100.00
36598;BME280;22607;49.550;11.940;2023-03-04T09:09:02;97243.69;;;0.27;100.00
36598;BME280;22607;49.550;11.940;2023-03-04T09:11:29;97249.88;;;0.24;100.00
36598;BME280;22607;49.550;11.940;2023-03-04T09:13:56;97247.00;;;0.29;100.00
36598;BME280;22607;49.550;11.940;2023-03-04T09:16:23;97249.41;;;0.32;100.00
36598;BME280;22607;49.550;11.940;2023-03-04T09:18:49;97243.78;;;0.25;100.00
36598;BME280;22607;49.550;11.940;2023-03-04T09:21:17;97243.78;;;0.52;100.00
36598;BME280;22607;49.550;11.940;2023-03-04T09:23:53;97248.16;;;0.65;100.00
36598;BME280;22607;49.550;11.940;2023-03-04T09:26:23;97246.44;;;0.78;100.00
36598;BME280;22607;49.550;11.940;2023-03-04T09:28:55;97242.19;;;0.77;100.00
36598;BME280;22607;49.550;11.940;2023-03-04T09:31:23;97248.28;;;0.76;100.00
36598;BME280;22607;49.550;11.940;2023-03-04T09:33:51;97253.56;;;0.75;97.75
36598;BME280;22607;49.550;11.940;2023-03-04T09:36:18;97251.25;;;0.57;100.00
36598;BME280;22607;49.550;11.940;2023-03-04T09:38:47;97251.28;;;0.70;100.00
36598;BME280;22607;49.550;11.940;2023-03-04T09:41:37;97244.56;;;0.81;100.00
36598;BME280;22607;49.550;11.940;2023-03-04T09:44:22;97257.91;;;0.87;99.98
36598;BME280;22607;49.550;11.940;2023-03-04T09:46:57;97256.06;;;0.89;98.36
36598;BME280;22607;49.550;11.940;2023-03-04T09:49:24;97258.97;;;0.98;98.43
36598;BME280;22607;49.550;11.940;2023-03-04T09:57:26;97253.09;;;1.09;93.02
36598;BME280;22607;49.550;11.940;2023-03-04T10:00:12;97257.13;;;1.13;92.56
36598;BME280;22607;49.550;11.940;2023-03-04T10:05:06;97246.03;;;0.85;94.41
36598;BME280;22607;49.550;11.940;2023-03-04T10:07:39;97255.56;;;0.97;95.07
36598;BME280;22607;49.550;11.940;2023-03-04T10:10:31;97254.44;;;1.27;91.38
36598;BME280;22607;49.550;11.940;2023-03-04T10:13:00;97249.06;;;1.17;92.47
36598;BME280;22607;49.550;11.940;2023-03-04T10:33:11;97232.38;;;1.48;87.48
36598;BME280;22607;49.550;11.940;2023-03-04T10:35:37;97225.88;;;1.55;88.00
36598;BME280;22607;49.550;11.940;2023-03-04T10:38:05;97232.06;;;1.65;83.76
36598;BME280;22607;49.550;11.940;2023-03-04T10:40:37;97234.84;;;1.62;88.44
36598;BME280;22607;49.550;11.940;2023-03-04T10:43:19;97225.75;;;1.69;86.78
36598;BME280;22607;49.550;11.940;2023-03-04T10:45:57;97230.47;;;1.76;89.30
36598;BME280;22607;49.550;11.940;2023-03-04T10:48:27;97218.88;;;1.81;88.96
36598;BME280;22607;49.550;11.940;2023-03-04T10:51:10;97228.09;;;1.73;90.10
36598;BME280;22607;49.550;11.940;2023-03-04T10:53:40;97220.16;;;2.00;83.60
36598;BME280;22607;49.550;11.940;2023-03-04T10:56:37;97222.91;;;1.86;83.26
36598;BME280;22607;49.550;11.940;2023-03-04T11:05:04;97222.91;;;1.73;86.35
36598;BME280;22607;49.550;11.940;2023-03-04T11:07:38;97223.16;;;1.69;89.54
36598;BME280;22607;49.550;11.940;2023-03-04T11:10:39;97212.75;;;1.82;87.66
36598;BME280;22607;49.550;11.940;2023-03-04T11:13:11;97211.06;;;1.94;87.33
36598;BME280;22607;49.550;11.940;2023-03-04T11:16:03;97215.28;;;2.08;84.28
36598;BME280;22607;49.550;11.940;2023-03-04T11:18:43;97208.03;;;2.01;88.02
36598;BME280;22607;49.550;11.940;2023-03-04T11:21:41;97209.81;;;2.00;86.21
36598;BME280;22607;49.550;11.940;2023-03-04T11:24:24;97205.66;;;1.98;85.16
36598;BME280;22607;49.550;11.940;2023-03-04T11:27:14;97208.66;;;1.91;84.73
36598;BME280;22607;49.550;11.940;2023-03-04T11:29:54;97206.81;;;1.93;87.08
36598;BME280;22607;49.550;11.940;2023-03-04T11:32:25;97212.94;;;1.92;86.78
36598;BME280;22607;49.550;11.940;2023-03-04T11:35:07;97205.41;;;2.14;83.07
36598;BME280;22607;49.550;11.940;2023-03-04T11:37:53;97207.13;;;1.89;87.06
36598;BME280;22607;49.550;11.940;2023-03-04T11:40:35;97196.41;;;2.06;84.76
36598;BME280;22607;49.550;11.940;2023-03-04T11:43:19;97199.59;;;2.10;86.28
36598;BME280;22607;49.550;11.940;2023-03-04T11:48:41;97199.38;;;2.13;84.24
36598;BME280;22607;49.550;11.940;2023-03-04T11:51:25;97192.09;;;2.18;85.25
36598;BME280;22607;49.550;11.940;2023-03-04T11:56:44;97191.69;;;2.25;83.21
36598;BME280;22607;49.550;11.940;2023-03-04T11:59:27;97186.25;;;2.28;82.65
36598;BME280;22607;49.550;11.940;2023-03-04T12:02:16;97186.81;;;2.20;82.49
36598;BME280;22607;49.550;11.940;2023-03-04T12:10:47;97176.28;;;2.34;84.50
36598;BME280;22607;49.550;11.940;2023-03-04T12:16:36;97165.91;;;2.34;81.44
36598;BME280;22607;49.550;11.940;2023-03-04T12:19:13;97167.03;;;2.19;86.45
36598;BME280;22607;49.550;11.940;2023-03-04T12:36:19;97144.25;;;2.47;85.14
36598;BME280;22607;49.550;11.940;2023-03-04T12:41:33;97140.50;;;2.51;82.54
36598;BME280;22607;49.550;11.940;2023-03-04T12:44:16;97136.19;;;2.63;82.91
36598;BME280;22607;49.550;11.940;2023-03-04T12:55:15;97132.31;;;2.69;82.15
36598;BME280;22607;49.550;11.940;2023-03-04T12:57:43;97129.34;;;2.73;80.12
36598;BME280;22607;49.550;11.940;2023-03-04T13:03:28;97130.16;;;2.62;83.13
36598;BME280;22607;49.550;11.940;2023-03-04T13:09:02;97105.16;;;2.73;80.12
36598;BME280;22607;49.550;11.940;2023-03-04T13:11:37;97110.13;;;2.65;82.40
36598;BME280;22607;49.550;11.940;2023-03-04T13:16:52;97111.69;;;2.90;82.13
36598;BME280;22607;49.550;11.940;2023-03-04T13:24:52;97103.06;;;3.01;81.61
36598;BME280;22607;49.550;11.940;2023-03-04T13:27:44;97101.31;;;3.01;78.97
36598;BME280;22607;49.550;11.940;2023-03-04T13:57:01;97076.63;;;3.30;81.22
36598;BME280;22607;49.550;11.940;2023-03-04T14:02:11;97079.72;;;3.12;82.61
36598;BME280;22607;49.550;11.940;2023-03-04T14:05:02;97076.41;;;3.10;81.00
36598;BME280;22607;49.550;11.940;2023-03-04T14:07:31;97079.47;;;3.04;82.05
36598;BME280;22607;49.550;11.940;2023-03-04T14:12:26;97071.59;;;3.06;83.00
36598;BME280;22607;49.550;11.940;2023-03-04T14:14:55;97070.25;;;3.23;80.05
36598;BME280;22607;49.550;11.940;2023-03-04T14:17:29;97072.16;;;3.09;80.82
36598;BME280;22607;49.550;11.940;2023-03-04T14:19:56;97067.69;;;3.11;81.69
36598;BME280;22607;49.550;11.940;2023-03-04T14:22:37;97062.00;;;3.29;79.63
36598;BME280;22607;49.550;11.940;2023-03-04T14:25:20;97062.00;;;3.18;80.31
36598;BME280;22607;49.550;11.940;2023-03-04T14:27:48;97051.13;;;3.35;79.54
36598;BME280;22607;49.550;11.940;2023-03-04T14:30:26;97057.28;;;3.23;80.42
36598;BME280;22607;49.550;11.940;2023-03-04T14:33:13;97057.41;;;3.21;80.95
36598;BME280;22607;49.550;11.940;2023-03-04T14:35:46;97063.31;;;3.23;80.27
36598;BME280;22607;49.550;11.940;2023-03-04T14:38:32;97057.06;;;3.26;80.48
36598;BME280;22607;49.550;11.940;2023-03-04T14:41:06;97054.22;;;3.18;81.29
36598;BME280;22607;49.550;11.940;2023-03-04T14:43:42;97050.81;;;2.83;84.22
36598;BME280;22607;49.550;11.940;2023-03-04T14:46:12;97043.63;;;2.98;82.64
36598;BME280;22607;49.550;11.940;2023-03-04T14:48:45;97047.13;;;3.20;81.64
36598;BME280;22607;49.550;11.940;2023-03-04T14:51:38;97048.94;;;3.19;81.53
36598;BME280;22607;49.550;11.940;2023-03-04T14:56:51;97039.75;;;3.04;84.08
36598;BME280;22607;49.550;11.940;2023-03-04T14:59:27;97045.78;;;2.93;84.48
36598;BME280;22607;49.550;11.940;2023-03-04T15:02:08;97041.41;;;3.05;83.33
36598;BME280;22607;49.550;11.940;2023-03-04T15:04:40;97046.47;;;3.06;83.32